Time;durP1;ratioP1;P1;durP2;ratioP2;P2;SDS_P1;SDS_P2;PMS_P1;PMS_P2;Temp;Humidity;BMP_temperature;BMP_pressure;BME280_temperature;BME280_humidity;BME280_pressure;Samples;Min_cycle;Max_cycle;Signal;HPM_P1;HPM_P2
2023/01/07 00:01:17;;;;;;;10.10;8.18;;;11.20;99.90;;;;;;5039914;28;20037;-84
2023/01/07 00:03:45;;;;;;;8.27;7.03;;;11.10;99.90;;;;;;5006567;28;20037;-82
2023/01/07 00:06:14;;;;;;;8.95;8.05;;;11.10;99.90;;;;;;4998461;28;20033;-87
2023/01/07 00:08:42;;;;;;;7.63;6.82;;;11.10;99.90;;;;;;5022404;28;20064;-86
2023/01/07 00:11:39;;;;;;;9.45;8.43;;;11.00;99.90;;;;;;5034840;28;20397;-85
2023/01/07 00:14:08;;;;;;;12.65;9.88;;;11.00;99.90;;;;;;5021427;28;20046;-86
2023/01/07 00:16:35;;;;;;;13.52;10.00;;;11.00;99.90;;;;;;5014420;28;20295;-87
2023/01/07 00:19:03;;;;;;;13.65;11.07;;;11.00;99.90;;;;;;5017051;28;20128;-87
2023/01/07 00:21:30;;;;;;;12.40;10.60;;;11.00;99.90;;;;;;5015192;28;20064;-82
2023/01/07 00:24:00;;;;;;;11.07;9.43;;;11.00;99.90;;;;;;4998407;28;20037;-84
2023/01/07 00:26:29;;;;;;;12.57;9.77;;;11.00;99.90;;;;;;5031659;28;20029;-83
2023/01/07 00:28:56;;;;;;;11.57;9.95;;;11.00;99.90;;;;;;5018566;28;20408;-82
2023/01/07 00:31:32;;;;;;;9.70;8.00;;;10.90;99.90;;;;;;5030282;28;20037;-83
2023/01/07 00:36:29;;;;;;;9.27;7.45;;;10.90;99.90;;;;;;5037636;28;20468;-85
2023/01/07 00:38:56;;;;;;;15.30;11.60;;;10.90;99.90;;;;;;5019629;28;20488;-78
2023/01/07 00:41:23;;;;;;;14.85;12.23;;;10.90;99.90;;;;;;5030103;28;20511;-84
2023/01/07 00:43:49;;;;;;;13.52;9.98;;;10.90;99.90;;;;;;5020773;28;20046;-84
2023/01/07 00:46:16;;;;;;;8.32;7.43;;;10.90;99.90;;;;;;5029264;28;20431;-84
2023/01/07 00:48:43;;;;;;;9.18;7.90;;;10.90;99.90;;;;;;5016143;28;20048;-78
2023/01/07 00:51:11;;;;;;;8.23;7.05;;;10.90;99.90;;;;;;5009150;28;20045;-83
2023/01/07 00:53:38;;;;;;;6.50;5.63;;;10.90;99.90;;;;;;5032449;28;20064;-83
2023/01/07 00:56:05;;;;;;;8.55;7.72;;;10.90;99.90;;;;;;5029969;28;20044;-84
2023/01/07 00:58:31;;;;;;;9.20;8.25;;;10.90;99.90;;;;;;5011213;28;20044;-79
2023/01/07 01:01:00;;;;;;;10.48;7.32;;;10.90;99.90;;;;;;5017807;28;20037;-85
2023/01/07 01:03:27;;;;;;;8.90;7.25;;;10.90;99.90;;;;;;5052533;28;20041;-82
2023/01/07 01:05:59;;;;;;;11.35;8.98;;;10.90;99.90;;;;;;5028793;28;20048;-85
2023/01/07 01:08:25;;;;;;;8.10;6.43;;;10.90;99.90;;;;;;4994279;28;20530;-83
2023/01/07 01:10:52;;;;;;;9.18;6.80;;;10.90;99.90;;;;;;5012134;28;20044;-82
2023/01/07 01:13:19;;;;;;;7.28;5.80;;;10.90;99.90;;;;;;5026512;28;20033;-84
2023/01/07 01:15:47;;;;;;;6.18;5.38;;;10.90;99.90;;;;;;5033272;28;20033;-82
2023/01/07 01:18:14;;;;;;;10.02;7.75;;;10.90;99.90;;;;;;5036160;28;20516;-85
2023/01/07 01:20:41;;;;;;;8.90;6.90;;;10.90;99.90;;;;;;5040114;28;20551;-87
2023/01/07 01:23:08;;;;;;;12.65;10.10;;;10.90;99.90;;;;;;5017614;28;20052;-79
2023/01/07 01:25:34;;;;;;;8.70;6.53;;;10.90;99.90;;;;;;5016481;28;20025;-85
2023/01/07 01:28:01;;;;;;;12.07;10.15;;;10.90;99.90;;;;;;5037878;28;20088;-85
2023/01/07 01:30:27;;;;;;;7.70;6.93;;;10.90;99.90;;;;;;5017957;28;20079;-82
2023/01/07 01:32:55;;;;;;;9.60;7.13;;;10.90;99.90;;;;;;5034107;28;20404;-82
2023/01/07 01:35:21;;;;;;;8.57;7.63;;;10.90;99.90;;;;;;5029298;28;20029;-84
2023/01/07 01:37:48;;;;;;;9.95;6.90;;;10.90;99.90;;;;;;5027900;28;20040;-84
2023/01/07 01:40:15;;;;;;;8.70;6.68;;;10.90;99.90;;;;;;5001159;28;20033;-86
2023/01/07 01:42:42;;;;;;;10.27;6.88;;;10.80;99.90;;;;;;5017195;28;20037;-79
2023/01/07 01:45:12;;;;;;;9.63;7.13;;;10.90;99.90;;;;;;5012679;28;20034;-84
2023/01/07 01:47:52;;;;;;;6.63;5.93;;;10.80;99.90;;;;;;5026487;28;20049;-80
2023/01/07 01:50:36;;;;;;;8.35;7.10;;;10.90;99.90;;;;;;4996872;28;20036;-82
2023/01/07 01:53:42;;;;;;;8.35;6.30;;;10.80;99.90;;;;;;5027833;28;20523;-85
2023/01/07 01:56:13;;;;;;;8.73;6.90;;;10.80;99.90;;;;;;4937460;28;20061;-82
2023/01/07 01:58:46;;;;;;;6.60;5.78;;;10.80;99.90;;;;;;4968293;28;20050;-82
2023/01/07 02:01:13;;;;;;;8.90;7.30;;;10.80;99.90;;;;;;4992429;28;20045;-82
2023/01/07 02:03:40;;;;;;;8.63;6.80;;;10.90;99.90;;;;;;5015772;28;20507;-83
2023/01/07 02:06:11;;;;;;;10.27;8.38;;;10.90;99.90;;;;;;5030275;28;20472;-84
2023/01/07 02:08:37;;;;;;;9.05;7.13;;;10.80;99.90;;;;;;5026768;28;20052;-85
2023/01/07 02:11:33;;;;;;;8.05;6.15;;;10.90;99.90;;;;;;5039162;28;20034;-85
2023/01/07 02:14:35;;;;;;;5.78;5.07;;;10.90;99.90;;;;;;5019822;28;20040;-84
2023/01/07 02:17:13;;;;;;;5.55;4.95;;;10.90;99.90;;;;;;5033449;28;20040;-81
2023/01/07 02:20:16;;;;;;;8.57;5.45;;;10.90;99.90;;;;;;5011557;28;20111;-79
2023/01/07 02:23:02;;;;;;;;;;;10.80;99.90;;;;;;5009232;28;20040;-80
2023/01/07 02:26:02;;;;;;;6.82;4.20;;;10.80;99.90;;;;;;5026024;28;20531;-84
2023/01/07 02:28:51;;;;;;;5.78;4.75;;;10.80;99.90;;;;;;5009513;28;20515;-83
2023/01/07 02:31:36;;;;;;;8.32;5.13;;;10.80;99.90;;;;;;5037898;28;20436;-84
2023/01/07 02:34:21;;;;;;;8.90;5.95;;;10.80;99.90;;;;;;5039009;28;20045;-80
2023/01/07 02:36:51;;;;;;;6.93;5.45;;;10.80;99.90;;;;;;5033433;28;20091;-84
2023/01/07 02:39:34;;;;;;;5.50;4.90;;;10.80;99.90;;;;;;5023251;28;20029;-84
2023/01/07 02:42:17;;;;;;;8.30;5.65;;;10.70;99.90;;;;;;5017069;28;20037;-83
2023/01/07 02:45:01;;;;;;;6.70;5.18;;;10.80;99.90;;;;;;5015013;28;20048;-86
2023/01/07 02:47:42;;;;;;;7.45;5.28;;;10.70;99.90;;;;;;5037028;28;20514;-85
2023/01/07 02:50:08;;;;;;;7.00;4.13;;;10.70;99.90;;;;;;5012334;28;20037;-80
2023/01/07 02:52:36;;;;;;;4.97;3.90;;;10.70;99.90;;;;;;4993305;28;20493;-83
2023/01/07 02:55:12;;;;;;;4.78;4.13;;;10.70;99.90;;;;;;5034876;28;20598;-79
2023/01/07 02:57:57;;;;;;;6.35;5.30;;;10.70;99.90;;;;;;5021490;28;20068;-82
2023/01/07 03:00:51;;;;;;;6.85;4.82;;;10.70;99.90;;;;;;5034885;28;20036;-82
2023/01/07 03:03:20;;;;;;;9.73;5.28;;;10.70;99.90;;;;;;5016560;28;20048;-79
2023/01/07 03:06:01;;;;;;;5.63;4.22;;;10.70;99.90;;;;;;5027329;28;20037;-84
2023/01/07 03:08:33;;;;;;;7.93;5.38;;;10.70;99.90;;;;;;5005826;28;20036;-83
2023/01/07 03:11:05;;;;;;;8.15;5.28;;;10.70;99.90;;;;;;5010851;28;20481;-84
2023/01/07 03:13:41;;;;;;;7.03;4.93;;;10.70;99.90;;;;;;5007609;28;20034;-83
2023/01/07 03:16:09;;;;;;;4.97;3.70;;;10.70;99.90;;;;;;4995372;28;20029;-84
2023/01/07 03:18:41;;;;;;;7.63;5.20;;;10.70;99.90;;;;;;5026387;28;20053;-83
2023/01/07 03:21:12;;;;;;;8.45;5.18;;;10.70;99.90;;;;;;5027062;28;20067;-83
2023/01/07 03:23:44;;;;;;;7.18;5.22;;;10.70;99.90;;;;;;5033861;28;20392;-83
2023/01/07 03:26:12;;;;;;;6.43;5.38;;;10.70;99.90;;;;;;4994257;28;20041;-83
2023/01/07 03:28:40;;;;;;;9.18;5.22;;;10.70;99.90;;;;;;5010421;28;20044;-81
2023/01/07 03:31:14;;;;;;;4.90;4.07;;;10.70;99.90;;;;;;5029517;28;20608;-84
2023/01/07 03:33:40;;;;;;;6.95;5.07;;;10.70;99.90;;;;;;5015050;28;20061;-81
2023/01/07 03:36:09;;;;;;;5.80;4.00;;;10.70;99.90;;;;;;5013743;28;20044;-81
2023/01/07 03:38:38;;;;;;;7.65;5.30;;;10.70;99.90;;;;;;5002663;28;20476;-84
2023/01/07 03:41:04;;;;;;;4.85;4.15;;;10.70;99.90;;;;;;5013313;28;20041;-76
2023/01/07 03:43:31;;;;;;;8.27;5.45;;;10.70;99.90;;;;;;5030216;28;20037;-82
2023/01/07 03:45:58;;;;;;;8.45;4.82;;;10.70;99.90;;;;;;5002935;28;20041;-82
2023/01/07 03:48:26;;;;;;;7.20;5.68;;;10.70;99.90;;;;;;5015396;28;20408;-82
2023/01/07 03:50:52;;;;;;;5.90;3.78;;;10.70;99.90;;;;;;5012329;28;20029;-77
2023/01/07 03:53:19;;;;;;;5.35;3.97;;;10.70;99.90;;;;;;5027413;28;20033;-83
2023/01/07 03:55:49;;;;;;;3.88;3.50;;;10.70;99.90;;;;;;5012438;28;20053;-82
2023/01/07 03:58:15;;;;;;;5.90;3.78;;;10.70;99.90;;;;;;5035313;28;20037;-82
2023/01/07 04:00:43;;;;;;;6.20;4.18;;;10.70;99.90;;;;;;5030212;28;20115;-80
2023/01/07 04:03:15;;;;;;;5.23;3.23;;;10.60;99.90;;;;;;5031372;28;20029;-77
2023/01/07 04:05:45;;;;;;;4.95;3.85;;;10.60;99.90;;;;;;5000934;28;20381;-83
2023/01/07 04:08:12;;;;;;;4.70;3.45;;;10.60;99.90;;;;;;5018408;28;20049;-82
2023/01/07 04:10:39;;;;;;;5.50;3.42;;;10.60;99.90;;;;;;5035639;28;20041;-82
2023/01/07 04:13:05;;;;;;;3.83;3.05;;;10.60;99.90;;;;;;5026728;28;20064;-80
2023/01/07 04:15:32;;;;;;;5.00;4.47;;;10.60;99.90;;;;;;5005931;28;20041;-82
2023/01/07 04:17:58;;;;;;;5.47;4.22;;;10.50;99.90;;;;;;5032910;28;20045;-81
2023/01/07 04:20:25;;;;;;;4.00;3.63;;;10.50;99.90;;;;;;5037072;28;20033;-83
2023/01/07 04:22:53;;;;;;;7.55;4.28;;;10.50;99.90;;;;;;5030431;28;20045;-77
2023/01/07 04:25:19;;;;;;;6.22;3.88;;;10.40;99.90;;;;;;5031425;28;20040;-84
2023/01/07 04:27:46;;;;;;;6.15;3.30;;;10.40;99.90;;;;;;5014273;28;20038;-81
2023/01/07 04:30:12;;;;;;;4.55;3.08;;;10.30;99.90;;;;;;5029216;28;20029;-80
2023/01/07 04:32:39;;;;;;;6.38;3.00;;;10.30;99.90;;;;;;5019831;28;20414;-76
2023/01/07 04:35:05;;;;;;;5.47;2.95;;;10.30;99.90;;;;;;5016062;28;20041;-84
2023/01/07 04:37:32;;;;;;;5.03;2.55;;;10.30;99.90;;;;;;5029866;28;20034;-82
2023/01/07 04:39:59;;;;;;;3.60;3.05;;;10.30;99.90;;;;;;4997354;28;20029;-82
2023/01/07 04:42:26;;;;;;;4.72;3.13;;;10.30;99.90;;;;;;5005575;28;20041;-82
2023/01/07 04:44:53;;;;;;;4.68;2.70;;;10.30;99.90;;;;;;5011763;28;20047;-80
2023/01/07 04:47:19;;;;;;;4.75;3.97;;;10.20;99.90;;;;;;5030105;28;20045;-83
2023/01/07 04:49:47;;;;;;;3.97;2.70;;;10.20;99.90;;;;;;5009250;28;20484;-82
2023/01/07 04:52:13;;;;;;;4.50;3.30;;;10.20;99.90;;;;;;5013139;28;20052;-81
2023/01/07 04:54:40;;;;;;;6.72;3.20;;;10.20;99.90;;;;;;5010896;28;20135;-81
2023/01/07 04:57:07;;;;;;;4.05;3.53;;;10.10;99.90;;;;;;5030086;28;20041;-82
2023/01/07 04:59:33;;;;;;;3.60;3.13;;;10.10;99.90;;;;;;5014288;28;20033;-81
2023/01/07 05:02:01;;;;;;;4.43;2.80;;;10.00;99.90;;;;;;5012040;28;20045;-83
2023/01/07 05:04:28;;;;;;;7.22;3.83;;;10.00;99.90;;;;;;5013705;28;20033;-83
2023/01/07 05:06:54;;;;;;;4.28;2.88;;;10.00;99.90;;;;;;5027260;28;20048;-80
2023/01/07 05:09:23;;;;;;;5.75;3.55;;;10.00;99.90;;;;;;5012917;28;20033;-81
2023/01/07 05:11:50;;;;;;;3.58;2.58;;;9.90;99.90;;;;;;5028731;28;20042;-78
2023/01/07 05:14:17;;;;;;;5.80;3.35;;;9.90;99.90;;;;;;5002527;28;20041;-79
2023/01/07 05:16:43;;;;;;;5.00;2.95;;;9.90;99.90;;;;;;5031717;28;20052;-83
2023/01/07 05:19:11;;;;;;;5.85;3.08;;;9.90;99.90;;;;;;5010937;28;20045;-83
2023/01/07 05:21:41;;;;;;;5.70;3.08;;;9.90;99.90;;;;;;5012859;28;20407;-81
2023/01/07 05:24:08;;;;;;;3.70;2.53;;;9.90;99.90;;;;;;5013975;28;20036;-77
2023/01/07 05:26:35;;;;;;;4.03;2.38;;;9.90;99.90;;;;;;5033507;28;20057;-80
2023/01/07 05:29:02;;;;;;;4.53;2.83;;;9.90;99.90;;;;;;5017409;28;20424;-80
2023/01/07 05:31:28;;;;;;;4.97;2.35;;;10.00;99.90;;;;;;5028562;28;20044;-82
2023/01/07 05:33:54;;;;;;;4.75;2.35;;;10.00;99.90;;;;;;5009678;28;20033;-80
2023/01/07 05:36:22;;;;;;;4.45;2.65;;;10.00;99.90;;;;;;5027452;28;20080;-80
2023/01/07 05:38:48;;;;;;;4.97;3.05;;;10.00;99.90;;;;;;5029655;28;20049;-83
2023/01/07 05:41:15;;;;;;;3.85;3.00;;;10.00;99.90;;;;;;4999832;28;20040;-83
2023/01/07 05:43:41;;;;;;;5.65;3.13;;;10.00;99.90;;;;;;5030044;28;20039;-80
2023/01/07 05:46:07;;;;;;;3.88;2.05;;;10.10;99.90;;;;;;5016441;28;20048;-82
2023/01/07 05:48:34;;;;;;;3.47;1.88;;;10.10;99.90;;;;;;5030749;28;20037;-82
2023/01/07 05:51:00;;;;;;;3.17;1.92;;;10.10;99.90;;;;;;5013126;28;20033;-82
2023/01/07 05:53:26;;;;;;;3.25;1.85;;;10.20;99.90;;;;;;5030227;28;20041;-81
2023/01/07 05:55:57;;;;;;;3.63;1.67;;;10.20;99.90;;;;;;5027931;28;20041;-83
2023/01/07 05:58:24;;;;;;;2.88;1.63;;;10.20;99.90;;;;;;4994402;28;20040;-83
2023/01/07 06:00:50;;;;;;;4.18;2.78;;;10.30;99.90;;;;;;4999932;28;20033;-80
2023/01/07 06:03:16;;;;;;;5.55;3.55;;;10.30;99.90;;;;;;5042012;28;20356;-80
2023/01/07 06:05:43;;;;;;;3.40;3.10;;;10.30;99.90;;;;;;5034120;28;20489;-82
2023/01/07 06:08:09;;;;;;;4.07;2.42;;;10.30;99.90;;;;;;5026701;28;20378;-83
2023/01/07 06:10:36;;;;;;;3.67;2.58;;;10.30;99.90;;;;;;5027830;28;20139;-84
2023/01/07 06:13:02;;;;;;;3.55;2.80;;;10.30;99.90;;;;;;5025212;28;20048;-78
2023/01/07 06:15:28;;;;;;;4.50;2.35;;;10.30;99.90;;;;;;5028826;28;20060;-83
2023/01/07 06:17:55;;;;;;;3.35;2.30;;;10.30;99.90;;;;;;5010325;28;20049;-82
2023/01/07 06:20:22;;;;;;;3.72;2.80;;;10.20;99.90;;;;;;5012023;28;20052;-82
2023/01/07 06:22:49;;;;;;;4.95;2.50;;;10.20;99.90;;;;;;5025440;28;20048;-76
2023/01/07 06:25:16;;;;;;;3.35;2.58;;;10.20;99.90;;;;;;4997717;28;20145;-83
2023/01/07 06:27:43;;;;;;;6.47;2.42;;;10.20;99.90;;;;;;5012119;28;20041;-82
2023/01/07 06:30:10;;;;;;;3.47;2.72;;;10.20;99.90;;;;;;5011730;28;20045;-81
2023/01/07 06:32:41;;;;;;;4.57;2.70;;;10.20;99.90;;;;;;5027174;28;20032;-83
2023/01/07 06:35:10;;;;;;;3.28;2.42;;;10.30;99.90;;;;;;5027881;28;20029;-81
2023/01/07 06:37:36;;;;;;;3.53;2.60;;;10.30;99.90;;;;;;5027277;28;20033;-81
2023/01/07 06:40:03;;;;;;;4.38;2.47;;;10.20;99.90;;;;;;5037879;28;20037;-82
2023/01/07 06:42:29;;;;;;;7.38;3.47;;;10.30;99.90;;;;;;5043073;28;20034;-81
2023/01/07 06:44:56;;;;;;;3.90;2.50;;;10.30;99.90;;;;;;4995374;28;20055;-81
2023/01/07 06:47:22;;;;;;;3.38;1.98;;;10.30;99.90;;;;;;5035152;28;20041;-82
2023/01/07 06:49:48;;;;;;;4.45;1.90;;;10.30;99.90;;;;;;5025023;28;20044;-83
2023/01/07 06:52:15;;;;;;;6.82;2.90;;;10.30;99.90;;;;;;5025522;28;20037;-81
2023/01/07 06:54:44;;;;;;;4.10;2.45;;;10.30;99.90;;;;;;4992615;28;20388;-84
2023/01/07 06:57:10;;;;;;;3.65;2.85;;;10.30;99.90;;;;;;5026757;28;20408;-83
2023/01/07 06:59:37;;;;;;;2.47;1.60;;;10.30;99.90;;;;;;5011567;28;20385;-84
2023/01/07 07:02:03;;;;;;;4.93;2.28;;;10.30;99.90;;;;;;5025944;28;20034;-82
2023/01/07 07:04:29;;;;;;;2.50;1.48;;;10.30;99.90;;;;;;5023178;28;20057;-82
2023/01/07 07:06:55;;;;;;;1.98;1.35;;;10.30;99.90;;;;;;5025671;28;20476;-82
2023/01/07 07:09:22;;;;;;;3.30;1.50;;;10.30;99.90;;;;;;5041168;28;20594;-83
2023/01/07 07:11:48;;;;;;;3.45;1.10;;;10.40;99.90;;;;;;5026267;28;20040;-81
2023/01/07 07:14:14;;;;;;;4.65;1.70;;;10.40;99.90;;;;;;5034188;28;20523;-83
2023/01/07 07:16:41;;;;;;;3.58;1.40;;;10.40;99.90;;;;;;4999168;28;20049;-79
2023/01/07 07:19:07;;;;;;;2.25;1.50;;;10.30;99.90;;;;;;4992733;28;20061;-79
2023/01/07 07:21:33;;;;;;;2.40;1.42;;;10.40;99.90;;;;;;5025592;28;20036;-82
2023/01/07 07:23:59;;;;;;;2.67;1.60;;;10.40;99.90;;;;;;5008904;28;20033;-84
2023/01/07 07:26:26;;;;;;;3.50;1.23;;;10.30;99.90;;;;;;5009240;28;20049;-81
2023/01/07 07:28:52;;;;;;;2.45;1.02;;;10.30;99.90;;;;;;5032270;28;20041;-79
2023/01/07 07:31:18;;;;;;;2.83;1.70;;;10.30;99.90;;;;;;5018578;28;20029;-83
2023/01/07 07:33:45;;;;;;;2.13;0.98;;;10.40;99.90;;;;;;5028291;28;20075;-83
2023/01/07 07:36:11;;;;;;;3.28;1.00;;;10.40;99.90;;;;;;5025513;28;20029;-83
2023/01/07 07:38:37;;;;;;;2.05;1.17;;;10.30;99.90;;;;;;5013375;28;20072;-80
2023/01/07 07:41:04;;;;;;;2.50;1.00;;;10.40;99.90;;;;;;5009250;28;20033;-82
2023/01/07 07:43:30;;;;;;;1.38;0.60;;;10.40;99.90;;;;;;5011494;28;20078;-81
2023/01/07 07:45:57;;;;;;;1.88;0.98;;;10.40;99.90;;;;;;5018283;28;20048;-82
2023/01/07 07:48:23;;;;;;;5.13;1.02;;;10.40;99.90;;;;;;5032863;28;20033;-79
2023/01/07 07:50:50;;;;;;;1.15;0.73;;;10.40;99.90;;;;;;5008792;28;20376;-83
2023/01/07 07:53:18;;;;;;;3.83;1.33;;;10.40;99.90;;;;;;5006856;28;20064;-81
2023/01/07 07:55:45;;;;;;;1.65;0.80;;;10.40;99.90;;;;;;5015915;28;20083;-82
2023/01/07 07:58:12;;;;;;;2.25;0.70;;;10.40;99.90;;;;;;5026654;28;20041;-83
2023/01/07 08:00:38;;;;;;;1.92;0.95;;;10.40;99.90;;;;;;5030859;28;20045;-80
2023/01/07 08:03:04;;;;;;;1.60;0.63;;;10.40;99.90;;;;;;5007770;28;20400;-82
2023/01/07 08:05:31;;;;;;;2.58;0.70;;;10.40;99.90;;;;;;5014162;28;20046;-81
2023/01/07 08:07:57;;;;;;;2.58;0.70;;;10.40;99.90;;;;;;5027345;28;20495;-82
2023/01/07 08:10:27;;;;;;;2.67;0.90;;;10.40;99.90;;;;;;5040637;28;20041;-82
2023/01/07 08:12:54;;;;;;;1.50;0.70;;;10.40;99.90;;;;;;5011823;28;20034;-80
2023/01/07 08:15:20;;;;;;;3.33;0.85;;;10.40;99.90;;;;;;5030476;28;20037;-80
2023/01/07 08:17:46;;;;;;;1.80;0.90;;;10.50;99.90;;;;;;5029928;28;20057;-80
2023/01/07 08:20:13;;;;;;;1.55;0.60;;;10.40;99.90;;;;;;5019273;28;20045;-80
2023/01/07 08:22:39;;;;;;;1.83;0.60;;;10.40;99.90;;;;;;5013121;28;20492;-79
2023/01/07 08:25:06;;;;;;;2.38;1.00;;;10.50;99.90;;;;;;5034065;28;20037;-79
2023/01/07 08:27:32;;;;;;;1.60;0.77;;;10.50;99.90;;;;;;5018300;28;20048;-80
2023/01/07 08:29:58;;;;;;;2.25;0.85;;;10.50;99.90;;;;;;5031945;28;20029;-80
2023/01/07 08:32:24;;;;;;;10.50;6.20;;;10.50;99.90;;;;;;5036866;28;20029;-81
2023/01/07 08:34:51;;;;;;;4.53;1.52;;;10.50;99.90;;;;;;5035149;28;20378;-79
2023/01/07 08:37:20;;;;;;;2.65;0.98;;;10.50;99.90;;;;;;5035122;28;20037;-78
2023/01/07 08:39:46;;;;;;;2.22;1.20;;;10.60;99.90;;;;;;5038181;28;20288;-79
2023/01/07 08:42:13;;;;;;;1.88;0.80;;;10.60;99.90;;;;;;5017226;28;20033;-78
2023/01/07 08:44:39;;;;;;;3.00;1.08;;;10.60;99.90;;;;;;5033977;28;20037;-78
2023/01/07 08:47:05;;;;;;;5.28;1.92;;;10.60;99.90;;;;;;5015803;28;20045;-81
2023/01/07 08:49:32;;;;;;;2.38;1.33;;;10.60;99.90;;;;;;5031795;28;20033;-79
2023/01/07 08:51:58;;;;;;;2.60;1.00;;;10.60;99.90;;;;;;5007202;28;20396;-79
2023/01/07 08:54:24;;;;;;;7.00;3.70;;;10.60;99.90;;;;;;5031495;28;20049;-78
2023/01/07 08:56:50;;;;;;;4.18;2.72;;;10.70;99.90;;;;;;5029986;28;20030;-82
2023/01/07 08:59:17;;;;;;;2.95;1.30;;;10.70;99.90;;;;;;5002786;28;20512;-78
2023/01/07 09:01:43;;;;;;;2.65;1.20;;;10.70;99.90;;;;;;5034562;28;20477;-79
2023/01/07 09:04:09;;;;;;;1.65;0.80;;;10.70;99.90;;;;;;5032886;28;20029;-79
2023/01/07 09:06:35;;;;;;;1.35;0.70;;;10.80;99.90;;;;;;5036078;28;20056;-80
2023/01/07 09:09:02;;;;;;;1.20;0.73;;;10.80;99.90;;;;;;5018357;28;20117;-77
2023/01/07 09:11:28;;;;;;;2.17;0.98;;;10.80;99.90;;;;;;5015144;28;20026;-79
2023/01/07 09:13:54;;;;;;;1.63;0.70;;;10.80;99.90;;;;;;5030419;28;20046;-80
2023/01/07 09:16:21;;;;;;;3.83;1.77;;;10.90;99.90;;;;;;5034822;28;20037;-79
2023/01/07 09:18:48;;;;;;;1.83;1.02;;;10.90;99.90;;;;;;5022687;28;20080;-80
2023/01/07 09:21:15;;;;;;;3.83;2.10;;;10.90;99.90;;;;;;5019913;28;20500;-82
2023/01/07 09:23:41;;;;;;;2.33;1.10;;;10.90;99.90;;;;;;5027456;28;20029;-79
2023/01/07 09:26:08;;;;;;;3.65;0.88;;;10.90;99.90;;;;;;5003407;28;20041;-78
2023/01/07 09:28:34;;;;;;;1.73;0.90;;;11.00;99.90;;;;;;5017074;28;20508;-79
2023/01/07 09:31:01;;;;;;;1.70;0.77;;;11.00;99.90;;;;;;5044372;28;20147;-77
2023/01/07 09:33:28;;;;;;;3.15;1.15;;;11.00;99.90;;;;;;5031614;28;20033;-78
2023/01/07 09:35:54;;;;;;;1.30;0.50;;;11.00;99.90;;;;;;5037541;28;20048;-82
2023/01/07 09:38:20;;;;;;;2.95;1.35;;;11.00;99.90;;;;;;5034316;28;20037;-82
2023/01/07 09:40:47;;;;;;;2.88;1.00;;;11.00;99.90;;;;;;5037558;28;20037;-81
2023/01/07 09:43:40;;;;;;;1.45;0.82;;;11.00;99.90;;;;;;5012019;28;20038;-79
2023/01/07 09:46:08;;;;;;;1.10;0.60;;;11.00;99.90;;;;;;5022945;28;20044;-80
2023/01/07 09:48:41;;;;;;;1.65;0.77;;;11.00;99.90;;;;;;5031224;28;20037;-81
2023/01/07 09:51:17;;;;;;;2.97;1.08;;;11.10;99.90;;;;;;5028048;28;20033;-80
2023/01/07 09:53:47;;;;;;;1.65;0.80;;;11.10;99.90;;;;;;5026840;28;20041;-81
2023/01/07 09:56:25;;;;;;;2.40;1.13;;;11.10;99.90;;;;;;5036331;28;20040;-80
2023/01/07 09:58:53;;;;;;;1.77;1.00;;;11.10;99.90;;;;;;5027222;28;20487;-81
2023/01/07 10:01:37;;;;;;;1.80;0.90;;;11.10;99.90;;;;;;5029129;28;20424;-81
2023/01/07 10:04:41;;;;;;;1.35;0.65;;;11.20;99.90;;;;;;5040104;28;20044;-81
2023/01/07 10:07:42;;;;;;;5.82;1.85;;;11.20;99.90;;;;;;5032270;28;20420;-81
2023/01/07 10:10:23;;;;;;;1.60;0.60;;;11.30;99.90;;;;;;5035603;28;20041;-80
2023/01/07 10:13:27;;;;;;;1.85;0.68;;;11.30;99.90;;;;;;5010634;28;20056;-80
2023/01/07 10:16:02;;;;;;;1.77;0.50;;;11.30;99.90;;;;;;5013824;28;20038;-79
2023/01/07 10:18:47;;;;;;;1.60;0.60;;;11.30;99.90;;;;;;5008417;28;20057;-79
2023/01/07 10:21:33;;;;;;;2.42;0.68;;;11.30;99.90;;;;;;5036800;28;20056;-79
2023/01/07 10:24:15;;;;;;;1.00;0.50;;;11.40;99.90;;;;;;5032114;28;20116;-83
2023/01/07 10:26:45;;;;;;;1.70;0.40;;;11.40;99.90;;;;;;5032893;28;20068;-79
2023/01/07 10:29:35;;;;;;;1.27;0.47;;;11.40;99.90;;;;;;5025468;28;20049;-79
2023/01/07 10:32:13;;;;;;;0.80;0.40;;;11.50;99.90;;;;;;5013654;28;20040;-79
2023/01/07 10:34:46;;;;;;;1.67;0.60;;;11.50;99.90;;;;;;5028905;28;20037;-82
2023/01/07 10:37:33;;;;;;;0.60;0.30;;;11.50;99.90;;;;;;5031885;28;20037;-82
2023/01/07 10:40:39;;;;;;;2.45;1.33;;;11.50;99.90;;;;;;5008480;28;20476;-82
2023/01/07 10:43:31;;;;;;;2.63;0.82;;;11.60;99.90;;;;;;5011538;28;20036;-81
2023/01/07 10:46:20;;;;;;;1.52;0.65;;;11.60;99.90;;;;;;5027048;28;20057;-80
2023/01/07 10:49:11;;;;;;;1.10;0.68;;;11.70;99.90;;;;;;5015935;28;20056;-81
2023/01/07 10:52:05;;;;;;;1.63;0.50;;;11.70;99.90;;;;;;5027153;28;20503;-83
2023/01/07 10:55:00;;;;;;;0.73;0.30;;;11.80;99.90;;;;;;5010311;28;20047;-82
2023/01/07 10:57:28;;;;;;;0.70;0.40;;;11.90;99.90;;;;;;5034028;28;20519;-83
2023/01/07 11:00:02;;;;;;;0.90;0.50;;;12.00;99.90;;;;;;5036498;28;20045;-81
2023/01/07 11:02:29;;;;;;;1.00;0.50;;;12.00;99.90;;;;;;5026634;28;20400;-81
2023/01/07 11:04:57;;;;;;;0.82;0.50;;;11.90;99.90;;;;;;5024009;28;20064;-82
2023/01/07 11:07:44;;;;;;;1.70;0.70;;;11.90;99.90;;;;;;5015569;28;20049;-82
2023/01/07 11:10:23;;;;;;;1.73;0.60;;;11.80;99.90;;;;;;5026722;28;20040;-82
2023/01/07 11:12:55;;;;;;;1.75;0.63;;;11.80;99.90;;;;;;5025294;28;20044;-81
2023/01/07 11:15:39;;;;;;;1.30;0.50;;;11.80;99.90;;;;;;5031727;28;20041;-82
2023/01/07 11:18:28;;;;;;;1.20;0.50;;;11.80;99.90;;;;;;5026973;28;20299;-82
2023/01/07 11:20:57;;;;;;;1.20;0.80;;;11.80;99.90;;;;;;5021070;28;20037;-81
2023/01/07 11:23:40;;;;;;;1.20;0.57;;;11.80;99.90;;;;;;5007468;28;20049;-81
2023/01/07 11:26:25;;;;;;;0.75;0.40;;;11.90;99.90;;;;;;5002383;28;20045;-84
2023/01/07 11:28:59;;;;;;;0.80;0.40;;;12.00;99.90;;;;;;5010492;28;20850;-83
2023/01/07 11:31:56;;;;;;;0.93;0.40;;;12.00;99.90;;;;;;5021465;28;20033;-80
2023/01/07 11:34:26;;;;;;;1.15;0.40;;;12.10;99.90;;;;;;4992077;28;20045;-80
2023/01/07 11:36:53;;;;;;;1.02;0.40;;;12.10;99.90;;;;;;5024379;28;20130;-83
2023/01/07 11:39:24;;;;;;;2.35;0.50;;;12.10;99.90;;;;;;5014917;28;20045;-81
2023/01/07 11:41:53;;;;;;;0.70;0.30;;;12.20;99.90;;;;;;5003782;28;20029;-83
2023/01/07 11:44:20;;;;;;;1.50;0.40;;;12.20;99.90;;;;;;5024809;28;20030;-82
2023/01/07 11:46:46;;;;;;;0.95;0.40;;;12.30;99.90;;;;;;5028994;28;20068;-84
2023/01/07 11:49:27;;;;;;;0.80;0.40;;;12.40;99.90;;;;;;5010695;28;20041;-82
2023/01/07 11:51:54;;;;;;;0.75;0.40;;;12.40;99.90;;;;;;5007727;28;20041;-86
2023/01/07 11:54:31;;;;;;;2.15;0.40;;;12.40;99.90;;;;;;5026470;28;20040;-87
2023/01/07 11:57:12;;;;;;;1.33;0.40;;;12.50;99.90;;;;;;5041546;28;20051;-82
2023/01/07 11:59:39;;;;;;;1.10;0.40;;;12.50;99.90;;;;;;5015163;28;20030;-81
2023/01/07 12:02:22;;;;;;;0.75;0.40;;;12.40;99.90;;;;;;5034648;28;20056;-82
2023/01/07 12:04:48;;;;;;;3.45;1.90;;;12.50;99.90;;;;;;5026577;28;20034;-82
2023/01/07 12:07:16;;;;;;;1.92;0.77;;;12.50;99.90;;;;;;5029368;28;20060;-82
2023/01/07 12:09:44;;;;;;;1.27;0.40;;;12.50;99.90;;;;;;5027701;28;20040;-83
2023/01/07 12:12:38;;;;;;;0.82;0.50;;;12.60;99.90;;;;;;5017121;28;20033;-81
2023/01/07 12:15:28;;;;;;;1.08;0.40;;;12.50;99.90;;;;;;5029304;28;20036;-82
2023/01/07 12:18:07;;;;;;;0.93;0.40;;;12.40;99.90;;;;;;5018961;28;20496;-82
2023/01/07 12:20:58;;;;;;;0.60;0.40;;;12.40;99.90;;;;;;5008832;28;20048;-85
2023/01/07 12:23:52;;;;;;;1.60;0.40;;;12.30;99.90;;;;;;5004995;28;20389;-82
2023/01/07 12:26:22;;;;;;;1.92;0.30;;;12.20;99.90;;;;;;5043305;28;20654;-81
2023/01/07 12:29:17;;;;;;;1.48;0.32;;;12.20;99.90;;;;;;5018732;28;20515;-81
2023/01/07 12:31:46;;;;;;;2.28;0.80;;;12.20;99.90;;;;;;5029285;28;20051;-82
2023/01/07 12:34:35;;;;;;;1.10;0.50;;;12.00;99.90;;;;;;5026270;28;20041;-85
2023/01/07 12:37:08;;;;;;;0.90;0.43;;;12.00;99.90;;;;;;5031239;28;20031;-83
2023/01/07 12:39:44;;;;;;;1.73;0.60;;;12.00;99.90;;;;;;5030590;28;20033;-82
2023/01/07 12:42:21;;;;;;;0.93;0.50;;;11.90;99.90;;;;;;4999834;28;20036;-82
2023/01/07 12:44:56;;;;;;;1.05;0.45;;;11.90;99.90;;;;;;5025831;28;20037;-84
2023/01/07 12:47:35;;;;;;;1.38;0.43;;;11.90;99.90;;;;;;5019597;28;20438;-83
2023/01/07 12:50:13;;;;;;;1.17;0.40;;;11.90;99.90;;;;;;5028721;28;20037;-82
2023/01/07 12:52:56;;;;;;;1.15;0.52;;;11.90;99.90;;;;;;5034326;28;20048;-81
2023/01/07 12:55:27;;;;;;;0.75;0.43;;;11.90;99.90;;;;;;5028124;28;20060;-83
2023/01/07 12:58:05;;;;;;;2.15;0.57;;;11.90;99.90;;;;;;5042874;28;20499;-83
2023/01/07 13:00:39;;;;;;;1.40;0.70;;;11.90;99.90;;;;;;5020317;28;20036;-83
2023/01/07 13:03:14;;;;;;;3.22;0.52;;;11.90;99.90;;;;;;5010811;28;20045;-84
2023/01/07 13:06:05;;;;;;;1.42;0.40;;;11.90;99.90;;;;;;5013335;28;20468;-82
2023/01/07 13:08:54;;;;;;;0.65;0.40;;;11.90;99.90;;;;;;5012967;28;20037;-80
2023/01/07 13:14:27;;;;;;;2.55;0.98;;;11.90;99.90;;;;;;5031704;28;20685;-82